Mc Fall, Missouri
Current Conditions -  °F | °C
As of 2:53 PM on Saturday 25 Oct 2014 (Local Time) from KSTJ Reporting Station
Clear Clear  
Wind Chill: 79°   Ceiling: Unl
Heat Index: 79°   Visibility: 10mi
Dew Point: 48°   Wind: 0mph
Humidity: 34%   Direction: NA
Pressure: 30.04"   Gusts: NA
Location:  40.2132°N, 94.5365°W
Report Text: KSTJ 251953Z 00000KT 10SM R35/3000VP6000FT CLR 26/09 A3004 RMK AO2 SLP167 T02610089
Loading
Personal Weather Stations






























Interactive Weather Map
Tropical Storm Tracking
New forecast layout! Learn more

10-Day Weather Forecast

Advertisements
Track Severe Weather on mobile